createdAt,value
2019-03-29T00:00:01.968Z,42.16
2019-03-29T00:02:27.986Z,42.30
2019-03-29T00:04:53.977Z,42.22
2019-03-29T00:07:19.970Z,42.24
2019-03-29T00:09:45.975Z,42.02
2019-03-29T00:12:11.971Z,42.17
2019-03-29T00:14:37.972Z,42.01
2019-03-29T00:17:03.969Z,42.07
2019-03-29T00:19:29.968Z,42.05
2019-03-29T00:21:55.967Z,42.08
2019-03-29T00:24:21.963Z,42.08
2019-03-29T00:26:47.965Z,41.92
2019-03-29T00:29:13.985Z,42.13
2019-03-29T00:31:40.092Z,42.10
2019-03-29T00:34:05.979Z,41.91
2019-03-29T00:36:31.973Z,41.89
2019-03-29T00:38:57.975Z,42.01
2019-03-29T00:41:24.393Z,41.97
2019-03-29T00:43:49.962Z,42.06
2019-03-29T00:46:15.967Z,42.00
2019-03-29T00:48:41.968Z,42.00
2019-03-29T00:51:07.987Z,41.93
2019-03-29T00:53:33.974Z,42.03
2019-03-29T00:55:59.965Z,41.96
2019-03-29T00:58:25.968Z,41.87
2019-03-29T01:00:51.960Z,41.72
2019-03-29T01:03:17.960Z,41.95
2019-03-29T01:05:43.955Z,41.86
2019-03-29T01:08:10.562Z,41.92
2019-03-29T01:10:35.952Z,41.76
2019-03-29T01:13:01.974Z,41.93
2019-03-29T01:15:27.970Z,41.87
2019-03-29T01:17:53.964Z,41.89
2019-03-29T01:20:19.966Z,41.94
2019-03-29T01:22:45.958Z,41.72
2019-03-29T01:25:11.959Z,41.92
2019-03-29T01:27:37.959Z,41.68
2019-03-29T01:30:03.960Z,41.87
2019-03-29T01:32:29.955Z,41.78
2019-03-29T01:34:55.954Z,41.77
2019-03-29T01:37:21.945Z,41.71
2019-03-29T01:39:47.950Z,41.71
2019-03-29T01:42:13.937Z,41.79
2019-03-29T01:44:39.955Z,41.81
2019-03-29T01:47:05.952Z,41.63
2019-03-29T01:49:31.940Z,41.74
2019-03-29T01:51:57.942Z,41.76
2019-03-29T01:54:23.935Z,41.51
2019-03-29T01:56:49.936Z,41.61
2019-03-29T01:59:16.902Z,41.59
2019-03-29T02:01:41.950Z,41.74
2019-03-29T02:04:08.219Z,41.68
2019-03-29T02:06:33.931Z,41.57
2019-03-29T02:08:59.946Z,41.72
2019-03-29T02:11:25.927Z,41.70
2019-03-29T02:13:51.979Z,41.46
2019-03-29T02:16:17.922Z,41.61
2019-03-29T02:18:43.924Z,41.49
2019-03-29T02:21:09.921Z,41.59
2019-03-29T02:23:35.920Z,41.43
2019-03-29T02:26:01.922Z,41.56
2019-03-29T02:28:27.939Z,41.57
2019-03-29T02:30:53.930Z,41.46
2019-03-29T02:33:20.800Z,41.67
2019-03-29T02:35:45.951Z,41.60
2019-03-29T02:38:12.044Z,41.55
2019-03-29T02:40:37.956Z,41.46
2019-03-29T02:43:03.949Z,41.59
2019-03-29T02:45:30.776Z,41.41
2019-03-29T02:47:55.947Z,41.51
2019-03-29T02:50:21.966Z,41.58
2019-03-29T02:52:48.029Z,41.47
2019-03-29T02:55:13.960Z,41.41
2019-03-29T02:57:39.956Z,41.47
2019-03-29T03:00:05.953Z,41.54
2019-03-29T03:02:31.950Z,41.50
2019-03-29T03:04:57.942Z,41.53
2019-03-29T03:07:23.943Z,41.39
2019-03-29T03:09:49.942Z,41.36
2019-03-29T03:12:15.940Z,41.47
2019-03-29T03:14:41.953Z,41.41
2019-03-29T03:17:07.954Z,41.54
2019-03-29T03:19:33.939Z,41.42
2019-03-29T03:21:59.932Z,41.47
2019-03-29T03:24:25.932Z,41.35
2019-03-29T03:26:51.923Z,41.50
2019-03-29T03:29:17.924Z,41.44
2019-03-29T03:31:43.927Z,41.37
2019-03-29T03:34:09.922Z,41.42
2019-03-29T03:36:35.931Z,41.41
2019-03-29T03:39:01.921Z,41.42
2019-03-29T03:41:27.919Z,41.45
2019-03-29T03:43:54.048Z,41.31
2019-03-29T03:46:19.928Z,41.34
2019-03-29T03:48:45.921Z,41.35
2019-03-29T03:51:12.010Z,41.34
2019-03-29T03:53:38.002Z,41.35
2019-03-29T03:56:03.999Z,41.27
2019-03-29T03:58:30.003Z,41.37
2019-03-29T04:00:56.042Z,41.36
2019-03-29T04:03:21.994Z,41.27
2019-03-29T04:05:48.021Z,41.10
2019-03-29T04:08:14.019Z,41.04
2019-03-29T04:10:42.163Z,41.07
2019-03-29T04:13:06.011Z,41.29
2019-03-29T04:15:32.055Z,41.19
2019-03-29T04:17:58.047Z,41.37
2019-03-29T04:20:24.039Z,41.35
2019-03-29T04:22:50.041Z,41.27
2019-03-29T04:25:16.041Z,41.22
2019-03-29T04:27:42.100Z,41.23
2019-03-29T04:30:08.098Z,41.02
2019-03-29T04:32:34.116Z,41.27
2019-03-29T04:35:00.452Z,41.20
2019-03-29T04:37:27.912Z,41.09
2019-03-29T04:40:06.795Z,41.27
2019-03-29T04:42:20.327Z,41.12
2019-03-29T04:44:46.330Z,41.16
2019-03-29T04:47:12.328Z,41.11
2019-03-29T04:49:38.328Z,41.19
2019-03-29T04:52:04.372Z,41.03
2019-03-29T04:54:30.344Z,41.04
2019-03-29T04:56:56.344Z,41.07
2019-03-29T04:59:22.343Z,41.11
2019-03-29T05:01:48.380Z,41.00
2019-03-29T05:04:14.374Z,41.15
2019-03-29T05:06:40.375Z,41.20
2019-03-29T05:09:06.371Z,41.10
2019-03-29T05:11:32.371Z,41.10
2019-03-29T05:13:58.363Z,41.18
2019-03-29T05:16:24.362Z,41.04
2019-03-29T05:18:50.358Z,41.07
2019-03-29T05:21:16.355Z,41.15
2019-03-29T05:23:42.349Z,41.22
2019-03-29T05:26:08.347Z,41.13
2019-03-29T05:28:34.378Z,41.18
2019-03-29T05:31:00.370Z,41.14
2019-03-29T05:33:26.386Z,41.17
2019-03-29T05:35:52.384Z,41.13
2019-03-29T05:38:18.446Z,41.21
2019-03-29T05:40:44.444Z,41.28
2019-03-29T05:43:10.452Z,41.29
2019-03-29T05:45:36.457Z,41.36
2019-03-29T05:48:02.446Z,41.37
2019-03-29T05:50:28.449Z,41.59
2019-03-29T05:52:54.446Z,41.83
2019-03-29T05:55:32.065Z,42.07
2019-03-29T05:57:46.443Z,42.25
2019-03-29T06:00:12.471Z,42.38
2019-03-29T06:02:38.517Z,42.50
2019-03-29T06:05:04.515Z,42.60
2019-03-29T06:07:30.528Z,42.69
2019-03-29T06:09:56.525Z,42.76
2019-03-29T06:12:22.523Z,42.81
2019-03-29T06:14:48.520Z,42.83
2019-03-29T06:17:14.529Z,42.88
2019-03-29T06:19:40.547Z,42.82
2019-03-29T06:22:06.551Z,42.85
2019-03-29T06:24:32.546Z,42.84
2019-03-29T06:26:58.545Z,42.84
2019-03-29T06:29:24.543Z,42.82
2019-03-29T06:31:50.543Z,42.81
2019-03-29T06:34:16.557Z,42.76
2019-03-29T06:36:42.552Z,42.72
2019-03-29T06:39:08.569Z,42.64
2019-03-29T06:41:34.558Z,42.61
2019-03-29T06:44:00.565Z,42.65
2019-03-29T06:46:26.563Z,42.65
2019-03-29T06:48:52.563Z,42.60
2019-03-29T06:51:18.587Z,42.59
2019-03-29T06:53:44.581Z,42.56
2019-03-29T06:56:10.586Z,42.52
2019-03-29T06:58:36.577Z,42.46
2019-03-29T07:01:02.570Z,42.44
2019-03-29T07:03:28.589Z,42.39
2019-03-29T07:05:54.581Z,42.36
2019-03-29T07:08:20.578Z,42.29
2019-03-29T07:10:46.590Z,42.10
2019-03-29T07:13:12.634Z,42.17
2019-03-29T07:15:38.630Z,42.16
2019-03-29T07:18:04.656Z,42.11
2019-03-29T07:20:30.652Z,42.07
2019-03-29T07:22:56.650Z,42.03
2019-03-29T07:25:22.659Z,41.99
2019-03-29T07:27:52.269Z,41.88
2019-03-29T07:30:14.795Z,41.86
2019-03-29T07:32:40.791Z,41.85
2019-03-29T07:35:06.801Z,41.83
2019-03-29T07:37:32.794Z,41.80
2019-03-29T07:39:58.832Z,41.78
2019-03-29T07:42:24.835Z,41.63
2019-03-29T07:44:50.832Z,41.69
2019-03-29T07:47:16.827Z,41.64
2019-03-29T07:49:42.824Z,41.41
2019-03-29T07:52:08.830Z,41.50
2019-03-29T07:54:34.822Z,41.46
2019-03-29T07:57:00.859Z,41.43
2019-03-29T07:59:26.858Z,41.53
2019-03-29T08:01:52.880Z,41.45
2019-03-29T08:04:21.487Z,41.47
2019-03-29T08:06:46.536Z,41.40
2019-03-29T08:09:21.751Z,41.41
2019-03-29T08:11:46.099Z,41.12
2019-03-29T08:14:02.884Z,41.29
2019-03-29T08:16:28.877Z,41.17
2019-03-29T08:18:54.889Z,41.27
2019-03-29T08:21:20.892Z,41.24
2019-03-29T08:23:46.917Z,41.12
2019-03-29T08:26:12.918Z,41.06
2019-03-29T08:28:38.910Z,40.99
2019-03-29T08:31:04.911Z,40.86
2019-03-29T08:33:30.909Z,41.16
2019-03-29T08:35:56.906Z,41.23
2019-03-29T08:38:22.901Z,41.36
2019-03-29T08:40:48.920Z,41.55
2019-03-29T08:43:14.922Z,41.69
2019-03-29T08:45:40.941Z,41.71
2019-03-29T08:48:07.019Z,41.62
2019-03-29T08:50:32.934Z,41.42
2019-03-29T08:52:58.987Z,41.32
2019-03-29T08:55:24.972Z,41.22
2019-03-29T08:57:50.974Z,40.67
2019-03-29T09:00:16.976Z,40.69
2019-03-29T09:02:42.988Z,40.46
2019-03-29T09:05:08.981Z,40.04
2019-03-29T09:07:44.657Z,38.72
2019-03-29T09:10:00.984Z,39.53
2019-03-29T09:12:27.013Z,39.77
2019-03-29T09:14:53.037Z,39.83
2019-03-29T09:17:19.041Z,39.83
2019-03-29T09:19:45.040Z,39.91
2019-03-29T09:22:11.029Z,39.87
2019-03-29T09:24:37.033Z,39.50
2019-03-29T09:27:03.027Z,39.50
2019-03-29T09:29:29.027Z,39.81
2019-03-29T09:31:55.022Z,39.40
2019-03-29T09:34:21.025Z,39.57
2019-03-29T09:36:47.075Z,39.52
2019-03-29T09:39:13.077Z,39.15
2019-03-29T09:41:39.075Z,39.47
2019-03-29T09:44:05.181Z,39.07
2019-03-29T09:46:31.104Z,39.51
2019-03-29T09:48:57.197Z,39.57
2019-03-29T09:51:23.184Z,39.61
2019-03-29T09:53:49.177Z,39.75
2019-03-29T09:56:15.195Z,39.75
2019-03-29T09:58:41.519Z,39.77
2019-03-29T10:01:07.192Z,39.97
2019-03-29T10:03:33.187Z,39.85
2019-03-29T10:05:59.182Z,40.15
2019-03-29T10:08:25.189Z,39.68
2019-03-29T10:10:51.177Z,38.81
2019-03-29T10:13:17.181Z,39.14
2019-03-29T10:15:43.185Z,38.98
2019-03-29T10:18:09.182Z,38.99
2019-03-29T10:20:35.186Z,38.73
2019-03-29T10:23:01.179Z,39.32
2019-03-29T10:25:27.183Z,39.03
2019-03-29T10:27:53.211Z,39.01
2019-03-29T10:30:19.219Z,39.41
2019-03-29T10:32:45.237Z,39.52
2019-03-29T10:35:11.248Z,39.28
2019-03-29T10:37:37.274Z,39.43
2019-03-29T10:40:03.263Z,39.69
2019-03-29T10:42:29.256Z,39.68
2019-03-29T10:44:55.268Z,39.84
2019-03-29T10:47:21.339Z,39.86
2019-03-29T10:49:47.346Z,39.93
2019-03-29T10:52:13.343Z,39.94
2019-03-29T10:54:39.351Z,39.98
2019-03-29T10:57:05.370Z,40.02
2019-03-29T10:59:31.367Z,40.29
2019-03-29T11:01:57.358Z,40.17
2019-03-29T11:04:23.357Z,39.85
2019-03-29T11:06:49.355Z,40.03
2019-03-29T11:09:15.356Z,40.28
2019-03-29T11:11:41.346Z,40.08
2019-03-29T11:14:07.351Z,40.45
2019-03-29T11:16:33.354Z,40.28
2019-03-29T11:18:59.385Z,40.36
2019-03-29T11:21:25.383Z,40.34
2019-03-29T11:23:51.380Z,40.40
2019-03-29T11:26:17.378Z,40.46
2019-03-29T11:28:43.374Z,40.52
2019-03-29T11:31:09.378Z,40.23
2019-03-29T11:33:35.369Z,40.51
2019-03-29T11:36:01.367Z,40.47
2019-03-29T11:38:27.367Z,40.64
2019-03-29T11:40:53.398Z,40.59
2019-03-29T11:43:26.758Z,40.77
2019-03-29T11:45:45.391Z,40.81
2019-03-29T11:48:11.394Z,40.69
2019-03-29T11:50:37.396Z,40.72
2019-03-29T11:53:03.397Z,40.82
2019-03-29T11:55:29.389Z,40.73
2019-03-29T11:57:55.963Z,40.89
2019-03-29T12:00:21.378Z,40.88
2019-03-29T12:02:47.411Z,40.96
2019-03-29T12:05:13.603Z,41.18
2019-03-29T12:07:40.206Z,41.40
2019-03-29T12:10:06.893Z,41.47
2019-03-29T12:12:32.880Z,41.56
2019-03-29T12:14:58.907Z,41.61
2019-03-29T12:17:24.903Z,41.71
2019-03-29T12:19:50.911Z,41.73
2019-03-29T12:22:16.911Z,41.84
2019-03-29T12:24:42.911Z,41.83
2019-03-29T12:27:08.907Z,41.93
2019-03-29T12:29:34.906Z,41.90
2019-03-29T12:32:00.909Z,41.92
2019-03-29T12:34:26.910Z,41.96
2019-03-29T12:36:52.911Z,41.90
2019-03-29T12:39:18.911Z,41.93
2019-03-29T12:41:44.910Z,41.90
2019-03-29T12:44:11.259Z,41.90
2019-03-29T12:46:37.261Z,41.84
2019-03-29T12:49:03.252Z,41.89
2019-03-29T12:51:29.282Z,41.86
2019-03-29T12:53:55.280Z,41.81
2019-03-29T12:56:21.308Z,41.64
2019-03-29T12:58:47.307Z,41.74
2019-03-29T13:01:13.307Z,41.74
2019-03-29T13:03:39.318Z,41.70
2019-03-29T13:06:05.317Z,41.64
2019-03-29T13:08:31.355Z,41.62
2019-03-29T13:10:57.376Z,41.73
2019-03-29T13:13:23.377Z,41.72
2019-03-29T13:15:49.594Z,41.82
2019-03-29T13:18:15.847Z,41.73
2019-03-29T13:20:41.892Z,41.62
2019-03-29T13:23:07.839Z,41.65
2019-03-29T13:25:33.841Z,41.71
2019-03-29T13:27:59.842Z,41.83
2019-03-29T13:30:25.840Z,41.64
2019-03-29T13:32:51.840Z,41.69
2019-03-29T13:35:17.844Z,41.74
2019-03-29T13:37:43.850Z,41.69
2019-03-29T13:40:09.865Z,41.59
2019-03-29T13:42:35.856Z,41.71
2019-03-29T13:45:01.874Z,41.66
2019-03-29T13:47:27.866Z,41.42
2019-03-29T13:49:53.857Z,41.52
2019-03-29T13:52:19.861Z,41.60
2019-03-29T13:54:45.856Z,41.49
2019-03-29T13:57:11.865Z,41.40
2019-03-29T13:59:37.897Z,41.37
2019-03-29T14:02:03.894Z,41.45
2019-03-29T14:04:29.895Z,41.37
2019-03-29T14:06:55.910Z,41.37
2019-03-29T14:09:21.910Z,41.37
2019-03-29T14:11:47.904Z,41.36
2019-03-29T14:14:13.904Z,41.34
2019-03-29T14:16:39.938Z,41.32
2019-03-29T14:19:05.955Z,41.38
2019-03-29T14:21:31.955Z,41.32
2019-03-29T14:23:58.064Z,41.36
2019-03-29T14:26:24.070Z,41.31
2019-03-29T14:28:50.070Z,41.29
2019-03-29T14:31:16.061Z,41.41
2019-03-29T14:33:42.064Z,41.34
2019-03-29T14:36:08.091Z,41.27
2019-03-29T14:38:34.082Z,41.44
2019-03-29T14:41:00.083Z,41.39
2019-03-29T14:43:26.084Z,41.38
2019-03-29T14:45:52.080Z,41.38
2019-03-29T14:48:18.070Z,41.20
2019-03-29T14:50:44.099Z,41.15
2019-03-29T14:53:10.091Z,41.04
2019-03-29T14:55:36.110Z,40.80
2019-03-29T14:58:02.103Z,40.98
2019-03-29T15:00:28.099Z,41.05
2019-03-29T15:02:54.105Z,40.96
2019-03-29T15:05:20.102Z,40.81
2019-03-29T15:07:46.104Z,40.84
2019-03-29T15:10:12.104Z,40.83
2019-03-29T15:12:38.107Z,40.83
2019-03-29T15:15:06.369Z,40.55
2019-03-29T15:17:30.115Z,40.62
2019-03-29T15:19:56.108Z,40.77
2019-03-29T15:22:22.347Z,40.65
2019-03-29T15:24:48.460Z,40.47
2019-03-29T15:27:14.446Z,40.65
2019-03-29T15:29:40.455Z,40.49
2019-03-29T15:32:06.449Z,40.45
2019-03-29T15:34:32.476Z,40.36
2019-03-29T15:36:59.413Z,40.34
2019-03-29T15:39:25.414Z,40.40
2019-03-29T15:41:51.407Z,40.31
2019-03-29T15:44:17.477Z,40.54
2019-03-29T15:46:43.476Z,40.46
2019-03-29T15:49:09.502Z,40.65
2019-03-29T15:51:35.494Z,40.33
2019-03-29T15:54:01.487Z,40.58
2019-03-29T15:56:27.490Z,40.49
2019-03-29T15:58:53.489Z,40.40
2019-03-29T16:01:19.486Z,40.56
2019-03-29T16:03:45.487Z,40.42
2019-03-29T16:06:11.481Z,40.54
2019-03-29T16:08:37.489Z,40.46
2019-03-29T16:11:03.546Z,40.48
2019-03-29T16:13:29.591Z,40.53
2019-03-29T16:15:55.587Z,40.14
2019-03-29T16:18:21.587Z,40.21
2019-03-29T16:20:47.588Z,40.53
2019-03-29T16:23:13.586Z,40.21
2019-03-29T16:25:39.596Z,40.50
2019-03-29T16:28:05.606Z,40.45
2019-03-29T16:30:31.603Z,40.34
2019-03-29T16:32:57.608Z,40.51
2019-03-29T16:35:23.792Z,40.48
2019-03-29T16:37:57.093Z,40.39
2019-03-29T16:40:15.833Z,40.47
2019-03-29T16:42:41.846Z,40.44
2019-03-29T16:45:07.861Z,40.37
2019-03-29T16:47:33.859Z,40.35
2019-03-29T16:49:59.895Z,40.16
2019-03-29T16:52:26.393Z,40.48
2019-03-29T16:54:52.566Z,40.41
2019-03-29T16:57:18.612Z,40.59
2019-03-29T16:59:45.625Z,40.83
2019-03-29T17:02:10.639Z,40.94
2019-03-29T17:04:36.673Z,41.01
2019-03-29T17:07:02.740Z,40.97
2019-03-29T17:09:28.894Z,41.13
2019-03-29T17:11:54.918Z,41.16
2019-03-29T17:14:20.906Z,41.03
2019-03-29T17:16:46.920Z,41.13
2019-03-29T17:19:12.916Z,41.23
2019-03-29T17:21:39.146Z,41.18
2019-03-29T17:24:05.155Z,41.29
2019-03-29T17:26:31.190Z,41.15
2019-03-29T17:28:57.279Z,41.20
2019-03-29T17:31:23.442Z,41.08
2019-03-29T17:33:49.654Z,41.14
2019-03-29T17:36:15.744Z,41.23
2019-03-29T17:38:41.768Z,41.27
2019-03-29T17:41:07.900Z,41.33
2019-03-29T17:43:33.906Z,41.30
2019-03-29T17:45:59.937Z,41.34
2019-03-29T17:48:25.941Z,41.41
2019-03-29T17:50:51.931Z,41.42
2019-03-29T17:53:17.931Z,41.48
2019-03-29T17:55:43.991Z,41.57
2019-03-29T17:58:10.034Z,41.58
2019-03-29T18:00:36.035Z,41.61
2019-03-29T18:03:02.034Z,41.79
2019-03-29T18:05:28.098Z,41.89
2019-03-29T18:07:54.094Z,41.93
2019-03-29T18:10:20.124Z,41.89
2019-03-29T18:12:46.119Z,41.93
2019-03-29T18:15:12.122Z,41.95
2019-03-29T18:17:38.119Z,41.95
2019-03-29T18:20:04.111Z,41.95
2019-03-29T18:22:30.137Z,41.93
2019-03-29T18:24:56.273Z,41.96
2019-03-29T18:27:22.276Z,41.99
2019-03-29T18:29:48.268Z,41.99
2019-03-29T18:32:14.271Z,42.16
2019-03-29T18:34:41.746Z,42.26
2019-03-29T18:37:06.312Z,42.32
2019-03-29T18:39:32.310Z,42.34
2019-03-29T18:41:58.306Z,42.36
2019-03-29T18:44:24.316Z,42.42
2019-03-29T18:46:50.306Z,42.40
2019-03-29T18:49:16.314Z,42.44
2019-03-29T18:51:42.316Z,42.30
2019-03-29T18:54:08.316Z,42.19
2019-03-29T18:56:34.310Z,42.14
2019-03-29T18:59:02.344Z,42.22
2019-03-29T19:01:28.338Z,42.25
2019-03-29T19:03:54.336Z,42.32
2019-03-29T19:06:20.353Z,42.39
2019-03-29T19:08:46.367Z,42.42
2019-03-29T19:11:12.375Z,42.42
2019-03-29T19:13:38.375Z,42.53
2019-03-29T19:16:04.402Z,42.58
2019-03-29T19:18:30.429Z,42.52
2019-03-29T19:20:56.454Z,42.47
2019-03-29T19:23:22.478Z,42.33
2019-03-29T19:25:48.475Z,42.24
2019-03-29T19:28:14.483Z,42.17
2019-03-29T19:30:40.480Z,42.18
2019-03-29T19:33:06.482Z,42.15
2019-03-29T19:35:32.478Z,42.17
2019-03-29T19:37:58.540Z,42.20
2019-03-29T19:40:24.544Z,42.13
2019-03-29T19:42:50.598Z,42.10
2019-03-29T19:45:16.596Z,42.05
2019-03-29T19:47:42.609Z,42.07
2019-03-29T19:50:08.637Z,42.10
2019-03-29T19:52:34.650Z,42.09
2019-03-29T19:55:01.397Z,42.06
2019-03-29T19:57:26.658Z,42.10
2019-03-29T19:59:52.764Z,42.22
2019-03-29T20:02:18.775Z,42.30
2019-03-29T20:04:44.762Z,42.24
2019-03-29T20:07:10.767Z,42.20
2019-03-29T20:09:36.782Z,42.22
2019-03-29T20:12:02.877Z,42.20
2019-03-29T20:14:28.872Z,42.19
2019-03-29T20:16:55.353Z,42.19
2019-03-29T20:19:20.870Z,42.27
2019-03-29T20:21:46.872Z,42.27
2019-03-29T20:24:12.897Z,42.25
2019-03-29T20:26:38.909Z,42.22
2019-03-29T20:29:04.940Z,42.18
2019-03-29T20:31:30.959Z,42.14
2019-03-29T20:33:56.971Z,42.21
2019-03-29T20:36:23.380Z,42.26
2019-03-29T20:38:49.067Z,42.24
2019-03-29T20:41:15.073Z,42.27
2019-03-29T20:43:41.087Z,42.30
2019-03-29T20:46:07.163Z,42.32
2019-03-29T20:48:33.242Z,42.33
2019-03-29T20:50:59.259Z,42.29
2019-03-29T20:53:25.283Z,42.33
2019-03-29T20:55:51.313Z,42.36
2019-03-29T20:58:17.323Z,42.45
2019-03-29T21:00:43.341Z,42.53
2019-03-29T21:03:09.394Z,42.48
2019-03-29T21:05:35.415Z,42.61
2019-03-29T21:08:01.430Z,42.61
2019-03-29T21:10:27.476Z,42.59
2019-03-29T21:12:53.526Z,42.63
2019-03-29T21:15:19.750Z,42.66
2019-03-29T21:17:56.402Z,42.61
2019-03-29T21:20:11.777Z,42.65
2019-03-29T21:22:37.806Z,42.64
2019-03-29T21:25:03.828Z,42.64
2019-03-29T21:27:29.845Z,42.63
2019-03-29T21:29:55.866Z,42.64
2019-03-29T21:32:21.877Z,42.62
2019-03-29T21:34:47.886Z,42.62
2019-03-29T21:37:13.924Z,42.63
2019-03-29T21:39:39.940Z,42.63
2019-03-29T21:42:05.999Z,42.68
2019-03-29T21:44:32.039Z,42.60
2019-03-29T21:46:58.056Z,42.60
2019-03-29T21:49:24.094Z,42.55
2019-03-29T21:51:50.099Z,42.56
2019-03-29T21:54:16.121Z,42.56
2019-03-29T21:56:42.146Z,42.52
2019-03-29T21:59:08.202Z,42.50
2019-03-29T22:01:34.209Z,42.49
2019-03-29T22:04:00.224Z,42.47
2019-03-29T22:06:26.230Z,42.46
2019-03-29T22:08:52.255Z,42.37
2019-03-29T22:11:18.276Z,42.44
2019-03-29T22:13:44.290Z,42.43
2019-03-29T22:16:10.306Z,42.36
2019-03-29T22:18:38.064Z,42.37
2019-03-29T22:21:02.398Z,42.36
2019-03-29T22:23:28.410Z,42.29
2019-03-29T22:25:54.430Z,42.33
2019-03-29T22:28:20.437Z,42.33
2019-03-29T22:30:46.452Z,42.30
2019-03-29T22:33:12.472Z,42.24
2019-03-29T22:35:38.485Z,42.21
2019-03-29T22:38:04.496Z,42.26
2019-03-29T22:40:30.514Z,42.24
2019-03-29T22:42:56.555Z,42.18
2019-03-29T22:45:22.573Z,42.17
2019-03-29T22:47:48.589Z,42.19
2019-03-29T22:50:14.598Z,42.14
2019-03-29T22:52:40.614Z,42.13
2019-03-29T22:55:06.736Z,42.14
2019-03-29T22:57:32.755Z,42.12
2019-03-29T22:59:58.765Z,42.08
2019-03-29T23:02:24.767Z,42.10
2019-03-29T23:04:50.788Z,42.04
2019-03-29T23:07:16.863Z,42.06
2019-03-29T23:09:42.905Z,41.94
2019-03-29T23:12:08.917Z,42.00
2019-03-29T23:14:35.231Z,41.97
2019-03-29T23:17:01.256Z,41.98
2019-03-29T23:19:27.282Z,41.96
2019-03-29T23:21:53.290Z,41.95
2019-03-29T23:24:19.281Z,41.97
2019-03-29T23:26:46.265Z,41.94
2019-03-29T23:29:12.266Z,41.92
2019-03-29T23:31:38.271Z,41.91
2019-03-29T23:34:04.274Z,41.75
2019-03-29T23:36:31.181Z,41.83
2019-03-29T23:38:57.192Z,41.77
2019-03-29T23:41:23.194Z,41.79
2019-03-29T23:43:49.201Z,41.82
2019-03-29T23:46:15.208Z,41.83
2019-03-29T23:48:41.239Z,41.75
2019-03-29T23:51:07.232Z,41.73
2019-03-29T23:53:33.230Z,41.76
2019-03-29T23:55:59.238Z,41.76
2019-03-29T23:58:25.246Z,41.74
